FW1093 Weather Reports


Display with metric or nautical units.
time (UTC)temp
F
wind
direction
speed
MPH
gust
MPH
rain 1hr
in
rain 24hr
in
rain mn
in
humidity
%
barometer
mb
20200714011320 71 193 0.0 0.0 0.00 0.00 0.00 86 1010.4
20200714010335 72 193 0.0 0.0 0.00 0.00 0.00 86 1010.3
20200714005321 73 193 0.0 0.0 0.00 0.00 0.00 84 1010.4
20200714004327 74 193 0.0 0.0 0.00 0.00 0.00 83 1010.2
20200714003318 75 193 0.0 0.0 0.00 0.00 0.00 82 1010.0
20200714002325 76 193 0.0 0.0 0.00 0.00 0.00 80 1010.0
20200714001313 78 193 0.0 0.0 0.00 0.00 0.00 78 1009.9
20200714000321 80 193 0.0 0.0 0.00 0.00 0.00 74 1009.8
20200713235325 82 193 0.0 0.0 0.00 0.00 0.00 69 1009.7
20200713234314 85 193 0.0 0.0 0.00 0.00 0.00 65 1009.7
20200713233321 87 193 0.0 0.0 0.00 0.00 0.00 60 1009.5
20200713232324 86 193 0.0 0.0 0.00 0.00 0.00 64 1009.5
20200713231317 85 193 0.0 2.0 0.00 0.00 0.00 62 1009.4
20200713230326 86 195 0.0 1.0 0.00 0.00 0.00 59 1009.3
20200713225332 86 149 0.0 1.0 0.00 0.00 0.00 61 1009.1
20200713224321 86 250 0.0 0.0 0.00 0.00 0.00 62 1009.0
20200713222312 86 295 0.0 1.0 0.00 0.00 0.00 61 1009.0
20200713221319 87 352 1.0 4.0 0.00 0.00 0.00 55 1008.9
20200713220335 87 332 0.0 2.0 0.00 0.00 0.00 58 1008.8
20200713215323 87 277 0.0 4.0 0.00 0.00 0.00 56 1008.7
20200713214327 88 290 0.0 2.0 0.00 0.00 0.00 55 1008.6
20200713213333 87 251 0.0 2.0 0.00 0.00 0.00 59 1008.5
20200713212320 86 281 0.0 4.0 0.00 0.00 0.00 58 1008.5
20200713211325 86 325 0.0 4.0 0.00 0.00 0.00 63 1008.4
20200713210313 86 310 0.0 1.0 0.00 0.00 0.00 63 1008.5
20200713205319 86 245 0.0 1.0 0.00 0.00 0.00 63 1008.5
20200713204318 86 242 0.0 2.0 0.00 0.00 0.00 62 1008.4
20200713203326 86 19 0.0 1.0 0.00 0.00 0.00 61 1008.4
20200713202313 87 331 0.0 4.0 0.00 0.00 0.00 58 1008.4
20200713201328 87 283 0.0 2.0 0.00 0.00 0.00 56 1008.6
20200713200317 87 360 1.0 2.0 0.00 0.00 0.00 60 1008.5
20200713195334 87 286 0.0 1.0 0.00 0.00 0.00 63 1008.6
20200713194323 85 16 0.0 4.0 0.00 0.00 0.00 61 1008.8
20200713193313 85 336 0.0 3.0 0.00 0.00 0.00 62 1008.7
20200713192327 85 349 0.0 2.0 0.00 0.00 0.00 66 1008.8
20200713191336 86 276 0.0 2.0 0.00 0.00 0.00 66 1008.8
20200713190327 87 290 0.0 2.0 0.00 0.00 0.00 60 1008.8
20200713185314 86 21 0.0 3.0 0.00 0.00 0.00 60 1008.7
20200713184317 86 288 1.0 2.0 0.00 0.00 0.00 62 1008.6
20200713183331 85 284 0.0 2.0 0.00 0.00 0.00 63 1008.6
20200713182336 84 279 0.0 2.0 0.00 0.00 0.00 64 1008.8
20200713181325 84 26 0.0 2.0 0.00 0.00 0.00 63 1008.8
20200713180315 84 264 0.0 0.0 0.00 0.00 0.00 70 1008.7
20200713175320 84 27 0.0 1.0 0.00 0.00 0.00 66 1008.8
20200713174335 83 316 1.0 2.0 0.00 0.00 0.00 67 1008.8
20200713173324 82 290 0.0 1.0 0.00 0.00 0.00 71 1008.8
20200713172315 81 289 0.0 1.0 0.00 0.00 0.00 77 1008.8
20200713171333 82 344 0.0 3.0 0.00 0.00 0.00 71 1008.9
20200713170319 83 283 0.0 2.0 0.00 0.00 0.00 67 1008.9
20200713165333 83 25 0.0 2.0 0.00 0.00 0.00 66 1008.9
20200713164323 83 165 0.0 1.0 0.00 0.00 0.00 68 1009.0
20200713163312 83 49 0.0 2.0 0.00 0.00 0.00 64 1009.0
20200713162329 83 11 0.0 3.0 0.00 0.00 0.00 64 1009.1
20200713161315 83 356 0.0 1.0 0.00 0.00 0.00 66 1009.3
20200713160330 83 44 0.0 2.0 0.00 0.00 0.00 65 1009.0
20200713155337 82 30 0.0 2.0 0.00 0.00 0.00 67 1009.0
20200713154325 82 354 0.0 2.0 0.00 0.00 0.00 67 1009.0
20200713153314 82 147 0.0 1.0 0.00 0.00 0.00 67 1009.1
20200713152320 82 281 0.0 2.0 0.00 0.00 0.00 67 1009.0
20200713151335 81 287 0.0 1.0 0.00 0.00 0.00 71 1009.0
20200713150313 80 358 0.0 1.0 0.00 0.00 0.00 72 1009.1
20200713145315 79 357 0.0 2.0 0.00 0.00 0.00 75 1009.0
20200713144319 79 263 0.0 2.0 0.00 0.00 0.00 74 1009.1
20200713143323 78 290 0.0 2.0 0.00 0.00 0.00 73 1009.1
20200713142338 77 15 0.0 1.0 0.00 0.00 0.00 79 1009.0
20200713141322 77 15 0.0 3.0 0.00 0.00 0.00 77 1009.0
20200713140337 77 4 0.0 1.0 0.00 0.00 0.00 80 1008.9
20200713135333 76 355 0.0 1.0 0.00 0.00 0.00 80 1008.9
20200713134318 76 32 0.0 1.0 0.00 0.00 0.00 81 1008.8
20200713133326 75 255 0.0 0.0 0.00 0.00 0.00 81 1009.0
20200713132329 75 174 0.0 0.0 0.00 0.00 0.00 83 1009.1
20200713131313 74 278 0.0 2.0 0.00 0.00 0.00 85 1009.1
20200713130326 73 155 0.0 0.0 0.00 0.00 0.00 86 1009.0
20200713125311 73 154 0.0 0.0 0.00 0.00 0.00 88 1008.9
20200713124327 72 154 0.0 0.0 0.00 0.00 0.00 90 1008.9
20200713123314 72 154 0.0 0.0 0.00 0.00 0.00 90 1009.0
20200713122329 72 154 0.0 0.0 0.00 0.00 0.00 91 1008.9
20200713121321 71 154 0.0 0.0 0.00 0.00 0.00 93 1009.0
20200713120336 71 155 0.0 0.0 0.00 0.00 0.00 94 1009.0
20200713115325 71 154 0.0 0.0 0.00 0.00 0.00 94 1009.0
20200713114331 71 155 0.0 0.0 0.00 0.00 0.00 95 1008.9
20200713113318 70 154 0.0 0.0 0.00 0.00 0.00 96 1009.1
20200713112324 70 154 0.0 0.0 0.00 0.00 0.00 96 1009.3
20200713111312 69 155 0.0 0.0 0.00 0.00 0.00 96 1009.2
20200713110327 69 154 0.0 0.0 0.00 0.00 0.00 96 1009.2
20200713105331 69 154 0.0 0.0 0.00 0.00 0.00 96 1009.0
20200713104320 69 154 0.0 0.0 0.00 0.00 0.00 96 1009.1
20200713103333 68 154 0.0 0.0 0.00 0.00 0.00 96 1009.1
20200713102319 68 154 0.0 0.0 0.00 0.00 0.00 96 1009.1
20200713101327 68 154 0.0 0.0 0.00 0.00 0.00 96 1008.9
20200713100314 68 154 0.0 0.0 0.00 0.00 0.00 96 1008.7
20200713095311 68 154 0.0 0.0 0.00 0.00 0.00 96 1008.6
20200713094324 68 155 0.0 0.0 0.00 0.00 0.00 96 1008.5
20200713093312 68 155 0.0 0.0 0.00 0.00 0.00 96 1008.6
20200713092327 68 154 0.0 0.0 0.00 0.00 0.00 96 1008.4
20200713091315 68 154 0.0 0.0 0.00 0.00 0.00 96 1008.5
20200713090329 68 154 0.0 0.0 0.00 0.00 0.00 95 1008.5
20200713085330 68 154 0.0 0.0 0.00 0.00 0.00 95 1008.4
20200713084318 68 154 0.0 0.0 0.00 0.00 0.00 95 1008.1
20200713083325 68 154 0.0 0.0 0.00 0.00 0.00 94 1008.2
20200713082314 69 154 0.0 0.0 0.00 0.00 0.00 94 1008.2
20200713081313 69 155 0.0 0.0 0.00 0.00 0.00 94 1008.1
20200713080327 69 154 0.0 0.0 0.00 0.00 0.00 93 1008.1
20200713075313 69 154 0.0 0.0 0.00 0.00 0.00 93 1008.2
20200713074318 69 154 0.0 0.0 0.00 0.00 0.00 93 1008.2
20200713073333 69 154 0.0 0.0 0.00 0.00 0.00 93 1008.3
20200713072321 69 154 0.0 0.0 0.00 0.00 0.00 93 1008.3
20200713071329 69 155 0.0 0.0 0.00 0.00 0.00 93 1008.4
20200713070320 69 154 0.0 0.0 0.00 0.00 0.00 93 1008.5
20200713065324 69 154 0.0 0.0 0.00 0.00 0.00 92 1008.6
20200713064312 70 154 0.0 0.0 0.00 0.00 0.00 92 1008.6
20200713063326 70 154 0.0 0.0 0.00 0.00 0.00 92 1008.5
20200713062333 70 154 0.0 0.0 0.00 0.00 0.00 91 1008.4
20200713061320 70 154 0.0 0.0 0.00 0.00 0.00 91 1008.4
20200713060325 70 155 0.0 0.0 0.00 0.00 0.00 90 1008.5
20200713055311 71 155 0.0 0.0 0.00 0.00 0.00 89 1008.6
20200713054317 71 154 0.0 0.0 0.00 0.00 0.00 88 1008.7
20200713053319 71 154 0.0 0.0 0.00 0.00 0.00 87 1008.6
20200713052327 71 154 0.0 0.0 0.00 0.00 0.00 86 1008.7
20200713051313 71 154 0.0 0.0 0.00 0.00 0.00 86 1008.9
20200713050328 72 154 0.0 0.0 0.00 0.00 0.00 86 1008.8
20200713045328 72 154 0.0 0.0 0.00 0.00 0.00 86 1008.9
20200713044316 72 155 0.0 0.0 0.00 0.00 0.00 85 1008.9
20200713043329 71 154 0.0 0.0 0.00 0.00 0.00 86 1009.0
20200713042318 71 139 0.0 0.0 0.00 0.00 0.00 87 1009.0
20200713041332 71 139 0.0 0.0 0.00 0.00 0.00 89 1009.1
20200713040336 71 143 0.0 0.0 0.00 0.00 0.00 91 1009.1
20200713035314 71 143 0.0 0.0 0.00 0.00 0.00 91 1008.7
20200713034328 71 143 0.0 0.0 0.00 0.00 0.00 91 1008.5
20200713033314 71 143 0.0 0.0 0.00 0.00 0.00 90 1008.4
20200713032329 71 143 0.0 0.0 0.00 0.00 0.00 90 1008.4
20200713031317 71 143 0.0 0.0 0.00 0.00 0.00 89 1008.3
20200713030324 71 143 0.0 0.0 0.00 0.00 0.00 88 1008.2
20200713025330 72 143 0.0 0.0 0.00 0.00 0.00 89 1008.3
20200713024317 72 143 0.0 0.0 0.00 0.00 0.00 87 1008.3
20200713023332 72 143 0.0 0.0 0.00 0.00 0.00 87 1008.0
20200713022338 73 143 0.0 0.0 0.00 0.00 0.00 87 1008.0
20200713021326 74 143 0.0 0.0 0.00 0.00 0.00 88 1008.0
20200713020334 74 143 0.0 0.0 0.00 0.00 0.00 86 1008.0
20200713015322 73 143 0.0 0.0 0.00 0.04 0.00 81 1008.0
20200713014314 74 143 0.0 0.0 0.00 0.04 0.00 84 1008.1
20200713013330 72 143 0.0 0.0 0.00 0.04 0.00 82 1008.1
20200713012318 73 143 0.0 0.0 0.00 0.04 0.00 88 1007.9